Time;durP1;ratioP1;P1;durP2;ratioP2;P2;SDS_P1;SDS_P2;PMS_P1;PMS_P2;Temp;Humidity;BMP_temperature;BMP_pressure;BME280_temperature;BME280_humidity;BME280_pressure;Samples;Min_cycle;Max_cycle;Signal;HPM_P1;HPM_P2
2022/09/12 00:01:26;;;;;;;1.77;0.93;;;24.80;52.60;;;;;;5032614;28;20029;-64
2022/09/12 00:03:57;;;;;;;1.20;0.80;;;24.80;52.60;;;;;;5033119;28;20118;-64
2022/09/12 00:06:29;;;;;;;1.17;0.80;;;24.80;52.60;;;;;;5031471;28;20035;-65
2022/09/12 00:08:56;;;;;;;2.55;0.80;;;24.80;52.60;;;;;;5032716;28;20033;-64
2022/09/12 00:11:23;;;;;;;1.23;0.80;;;24.80;52.60;;;;;;5032975;28;20033;-63
2022/09/12 00:13:48;;;;;;;1.50;0.73;;;24.80;52.60;;;;;;5032704;28;20045;-64
2022/09/12 00:16:21;;;;;;;1.92;0.80;;;24.80;52.60;;;;;;5032736;28;20025;-63
2022/09/12 00:18:47;;;;;;;1.45;0.82;;;24.80;52.60;;;;;;5032834;28;20033;-64
2022/09/12 00:21:14;;;;;;;1.48;0.82;;;24.80;52.60;;;;;;5032591;28;20033;-63
2022/09/12 00:23:39;;;;;;;2.28;0.90;;;24.70;52.50;;;;;;5031545;28;20025;-63
2022/09/12 00:26:06;;;;;;;2.25;0.90;;;24.70;52.50;;;;;;5032672;28;20037;-64
2022/09/12 00:28:36;;;;;;;1.55;0.80;;;24.70;52.50;;;;;;5007002;28;20027;-65
2022/09/12 00:31:08;;;;;;;1.02;0.70;;;24.70;52.60;;;;;;5012591;28;20040;-65
2022/09/12 00:33:35;;;;;;;2.22;1.00;;;24.70;52.60;;;;;;5032517;28;20923;-65
2022/09/12 00:36:05;;;;;;;1.83;0.90;;;24.70;52.50;;;;;;5032471;28;20034;-64
2022/09/12 00:38:32;;;;;;;1.45;0.90;;;24.70;52.60;;;;;;5032539;28;20025;-65
2022/09/12 00:40:57;;;;;;;2.83;0.82;;;24.70;52.60;;;;;;5032419;28;20064;-63
2022/09/12 00:43:39;;;;;;;1.85;0.80;;;24.70;52.60;;;;;;5032328;28;20061;-63
2022/09/12 00:46:23;;;;;;;1.40;0.70;;;24.70;52.60;;;;;;5013837;28;20116;-64
2022/09/12 00:48:54;;;;;;;1.67;0.80;;;24.60;52.50;;;;;;5031750;28;20036;-64
2022/09/12 00:51:21;;;;;;;1.60;0.82;;;24.60;52.50;;;;;;5032138;28;20373;-63
2022/09/12 00:53:49;;;;;;;1.98;0.80;;;24.60;52.50;;;;;;5032281;28;20099;-64
2022/09/12 00:56:17;;;;;;;0.97;0.70;;;24.60;52.50;;;;;;5032187;28;20489;-64
2022/09/12 00:59:07;;;;;;;1.08;0.75;;;24.60;52.50;;;;;;5031599;28;20492;-64
2022/09/12 01:01:33;;;;;;;1.83;0.90;;;24.60;52.60;;;;;;5030743;28;20034;-64
2022/09/12 01:04:00;;;;;;;1.00;0.80;;;24.60;52.60;;;;;;5031961;28;20374;-64
2022/09/12 01:06:36;;;;;;;0.80;0.70;;;24.60;52.60;;;;;;5031754;28;20037;-64
2022/09/12 01:09:03;;;;;;;1.42;0.80;;;24.60;52.60;;;;;;5030735;28;20025;-63
2022/09/12 01:11:36;;;;;;;1.05;0.70;;;24.60;52.60;;;;;;5014109;28;20022;-64
2022/09/12 01:14:01;;;;;;;1.45;0.80;;;24.60;52.60;;;;;;5031768;28;20548;-64
2022/09/12 01:16:27;;;;;;;1.33;0.80;;;24.60;52.60;;;;;;5031910;28;20104;-63
2022/09/12 01:19:27;;;;;;;1.67;0.80;;;24.50;52.50;;;;;;5031786;28;20033;-64
2022/09/12 01:22:24;;;;;;;1.60;0.70;;;24.50;52.60;;;;;;5031238;28;20394;-64
2022/09/12 01:25:08;;;;;;;1.42;0.80;;;24.50;52.60;;;;;;5031187;28;20034;-64
2022/09/12 01:27:56;;;;;;;1.15;0.80;;;24.50;52.60;;;;;;5031108;28;20485;-64
2022/09/12 01:30:33;;;;;;;2.03;0.90;;;24.50;52.60;;;;;;5028982;28;20036;-64
2022/09/12 01:33:12;;;;;;;1.73;0.95;;;24.50;52.60;;;;;;5031145;28;20032;-64
2022/09/12 01:35:47;;;;;;;1.63;0.87;;;24.50;52.60;;;;;;5031284;28;20112;-64
2022/09/12 01:38:13;;;;;;;1.10;0.80;;;24.50;53.10;;;;;;5031093;28;20747;-64
2022/09/12 01:40:47;;;;;;;1.25;0.80;;;24.50;52.60;;;;;;5031379;28;20021;-64
2022/09/12 01:43:40;;;;;;;0.88;0.70;;;24.50;52.60;;;;;;5030756;28;20029;-64
2022/09/12 01:46:17;;;;;;;1.30;0.77;;;24.50;52.70;;;;;;5030714;28;20025;-64
2022/09/12 01:48:55;;;;;;;1.23;0.80;;;24.50;52.70;;;;;;5029988;28;20866;-64
2022/09/12 01:51:59;;;;;;;1.48;0.75;;;24.50;52.60;;;;;;5029370;28;20031;-63
2022/09/12 01:54:32;;;;;;;2.10;0.80;;;24.40;52.70;;;;;;5030055;28;20540;-64
2022/09/12 01:57:03;;;;;;;1.27;0.70;;;24.40;52.60;;;;;;5031195;28;20026;-63
2022/09/12 01:59:39;;;;;;;1.75;0.88;;;24.40;52.60;;;;;;5031111;28;20523;-64
2022/09/12 02:02:29;;;;;;;1.25;0.70;;;24.40;52.70;;;;;;5030257;28;20025;-64
2022/09/12 02:04:58;;;;;;;;;;;24.40;52.70;;;;;;5031111;28;20041;-63
2022/09/12 02:07:36;;;;;;;1.05;0.70;;;24.40;52.70;;;;;;5030972;28;19909;-63
2022/09/12 02:10:12;;;;;;;1.02;0.70;;;24.40;52.60;;;;;;5030837;28;20491;-65
2022/09/12 02:13:04;;;;;;;0.70;0.70;;;24.40;52.70;;;;;;5030757;28;20033;-63
2022/09/12 02:15:48;;;;;;;0.98;0.70;;;24.40;52.70;;;;;;5030561;28;20496;-63
2022/09/12 02:18:17;;;;;;;1.10;0.60;;;24.40;52.70;;;;;;5030774;28;20095;-63
2022/09/12 02:20:45;;;;;;;1.25;0.70;;;24.40;52.70;;;;;;5030504;28;20385;-64
2022/09/12 02:23:22;;;;;;;1.30;0.88;;;24.40;52.70;;;;;;5029447;28;20038;-63
2022/09/12 02:25:52;;;;;;;1.15;0.60;;;24.30;52.60;;;;;;5030556;28;20030;-64
2022/09/12 02:28:23;;;;;;;1.00;0.70;;;24.30;52.60;;;;;;5030778;28;20944;-63
2022/09/12 02:31:03;;;;;;;1.17;0.75;;;24.30;52.70;;;;;;5030307;28;20174;-64
2022/09/12 02:33:36;;;;;;;0.90;0.70;;;24.30;52.70;;;;;;5029822;28;20039;-64
2022/09/12 02:36:30;;;;;;;1.02;0.70;;;24.30;52.60;;;;;;5030247;28;20080;-64
2022/09/12 02:38:55;;;;;;;0.85;0.70;;;24.30;52.70;;;;;;5019122;28;20045;-64
2022/09/12 02:41:22;;;;;;;0.77;0.70;;;24.30;52.70;;;;;;5030481;28;20040;-63
2022/09/12 02:43:49;;;;;;;0.95;0.70;;;24.30;52.70;;;;;;5030633;28;20105;-63
2022/09/12 02:46:30;;;;;;;0.90;0.68;;;24.30;52.70;;;;;;5029523;28;20087;-63
2022/09/12 02:48:57;;;;;;;1.58;0.80;;;24.30;52.70;;;;;;5030854;28;20109;-65
2022/09/12 02:51:24;;;;;;;1.20;0.70;;;24.30;52.70;;;;;;5030371;28;20048;-64
2022/09/12 02:53:50;;;;;;;0.88;0.80;;;24.30;52.70;;;;;;5030535;28;20420;-64
2022/09/12 02:56:24;;;;;;;1.17;0.90;;;24.30;52.70;;;;;;5030453;28;20377;-64
2022/09/12 02:58:50;;;;;;;0.70;0.70;;;24.30;52.70;;;;;;5030511;28;20116;-64
2022/09/12 03:01:34;;;;;;;1.13;0.70;;;24.30;52.70;;;;;;5029901;28;20093;-64
2022/09/12 03:04:08;;;;;;;1.17;0.80;;;24.30;52.70;;;;;;5030482;28;20545;-64
2022/09/12 03:06:42;;;;;;;0.90;0.70;;;24.30;52.70;;;;;;5028858;28;20033;-64
2022/09/12 03:09:16;;;;;;;0.80;0.68;;;24.30;52.70;;;;;;5029901;28;20029;-63
2022/09/12 03:11:47;;;;;;;1.15;0.70;;;24.30;52.70;;;;;;5029906;28;20508;-64
2022/09/12 03:14:21;;;;;;;1.25;0.73;;;24.30;52.70;;;;;;5030162;28;20041;-64
2022/09/12 03:17:13;;;;;;;0.77;0.70;;;24.30;52.70;;;;;;5030326;28;20507;-64
2022/09/12 03:19:57;;;;;;;0.85;0.70;;;24.30;52.70;;;;;;5029144;28;20358;-64
2022/09/12 03:22:26;;;;;;;1.08;0.80;;;24.30;52.70;;;;;;5029835;28;20037;-64
2022/09/12 03:25:10;;;;;;;0.75;0.70;;;24.30;52.70;;;;;;5031371;28;20217;-63
2022/09/12 03:27:41;;;;;;;0.70;0.60;;;24.30;52.70;;;;;;5033585;28;20041;-63
2022/09/12 03:30:09;;;;;;;1.02;0.70;;;24.30;52.70;;;;;;5032535;28;20436;-63
2022/09/12 03:32:48;;;;;;;1.05;0.80;;;24.30;52.70;;;;;;5033730;28;20029;-63
2022/09/12 03:35:17;;;;;;;1.08;0.70;;;24.20;52.70;;;;;;5033819;28;20032;-63
2022/09/12 03:37:43;;;;;;;0.98;0.70;;;24.20;52.60;;;;;;5033786;28;20025;-64
2022/09/12 03:40:10;;;;;;;0.90;0.70;;;24.20;52.60;;;;;;5033747;28;20028;-63
2022/09/12 03:42:36;;;;;;;0.80;0.70;;;24.20;52.60;;;;;;5033621;28;20044;-63
2022/09/12 03:45:03;;;;;;;1.08;0.80;;;24.20;52.70;;;;;;5033603;28;20075;-64
2022/09/12 03:47:28;;;;;;;1.05;0.70;;;24.20;52.70;;;;;;5033338;28;20441;-64
2022/09/12 03:49:54;;;;;;;0.93;0.60;;;24.20;52.70;;;;;;5033489;28;20041;-64
2022/09/12 03:52:20;;;;;;;0.98;0.68;;;24.20;52.70;;;;;;5033479;28;20025;-64
2022/09/12 03:54:45;;;;;;;1.27;0.70;;;24.20;52.70;;;;;;5033476;28;20469;-64
2022/09/12 03:57:11;;;;;;;0.85;0.70;;;24.20;52.70;;;;;;5033395;28;20547;-65
2022/09/12 03:59:36;;;;;;;0.80;0.60;;;24.20;52.70;;;;;;5032478;28;20028;-64
2022/09/12 04:02:03;;;;;;;0.90;0.60;;;24.20;52.70;;;;;;5032790;28;20037;-64
2022/09/12 04:04:29;;;;;;;1.48;0.70;;;24.20;52.70;;;;;;5032502;28;20045;-63
2022/09/12 04:06:55;;;;;;;0.60;0.60;;;24.20;52.70;;;;;;5033201;28;20052;-67
2022/09/12 04:09:21;;;;;;;0.77;0.60;;;24.20;52.70;;;;;;5033057;28;20025;-67
2022/09/12 04:11:46;;;;;;;1.02;0.70;;;24.20;52.70;;;;;;5033131;28;20124;-68
2022/09/12 04:14:12;;;;;;;0.60;0.60;;;24.10;52.60;;;;;;5032935;28;20045;-67
2022/09/12 04:16:39;;;;;;;0.80;0.70;;;24.20;52.70;;;;;;5033175;28;20453;-67
2022/09/12 04:19:04;;;;;;;0.75;0.60;;;24.10;52.60;;;;;;5032893;28;20029;-67
2022/09/12 04:21:30;;;;;;;0.68;0.60;;;24.20;52.70;;;;;;5032947;28;20049;-67
2022/09/12 04:23:56;;;;;;;0.90;0.52;;;24.20;52.70;;;;;;5032836;28;20029;-68
2022/09/12 04:26:22;;;;;;;0.77;0.60;;;24.20;52.70;;;;;;5031759;28;20095;-67
2022/09/12 04:28:52;;;;;;;0.93;0.50;;;24.20;52.70;;;;;;5032762;28;20073;-67
2022/09/12 04:31:19;;;;;;;1.00;0.77;;;24.10;52.60;;;;;;5031181;28;20493;-67
2022/09/12 04:33:45;;;;;;;1.25;0.70;;;24.10;52.70;;;;;;5006748;28;20029;-67
2022/09/12 04:36:16;;;;;;;0.68;0.60;;;24.10;52.70;;;;;;5031774;28;20374;-67
2022/09/12 04:38:46;;;;;;;0.80;0.68;;;24.10;52.70;;;;;;5032428;28;20032;-67
2022/09/12 04:41:17;;;;;;;0.77;0.60;;;24.10;52.60;;;;;;5031597;28;20034;-67
2022/09/12 04:43:47;;;;;;;1.00;0.65;;;24.10;52.60;;;;;;5032346;28;20026;-67
2022/09/12 04:46:14;;;;;;;;;;;24.10;52.60;;;;;;5030879;28;20018;-68
2022/09/12 04:48:40;;;;;;;0.70;0.60;;;24.10;52.60;;;;;;5032384;28;19905;-67
2022/09/12 04:51:12;;;;;;;1.08;0.70;;;24.10;52.60;;;;;;5005772;28;20017;-68
2022/09/12 04:53:38;;;;;;;0.75;0.60;;;24.10;52.50;;;;;;5030742;28;20465;-68
2022/09/12 04:56:07;;;;;;;0.63;0.60;;;24.10;52.60;;;;;;5014409;28;20048;-68
2022/09/12 04:58:34;;;;;;;0.60;0.60;;;24.10;52.50;;;;;;5032087;28;20543;-68
2022/09/12 05:01:10;;;;;;;0.60;0.60;;;24.10;52.50;;;;;;5031121;28;20033;-67
2022/09/12 05:03:38;;;;;;;0.70;0.70;;;24.10;52.50;;;;;;5031975;28;20026;-67
2022/09/12 05:06:09;;;;;;;0.63;0.57;;;24.10;52.50;;;;;;5031662;28;20461;-68
2022/09/12 05:08:36;;;;;;;0.57;0.50;;;24.10;53.00;;;;;;5012995;28;20033;-68
2022/09/12 05:11:06;;;;;;;0.85;0.80;;;24.10;52.50;;;;;;5031893;28;20334;-67
2022/09/12 05:13:33;;;;;;;1.00;0.70;;;24.10;52.50;;;;;;5031574;28;20025;-68
2022/09/12 05:16:01;;;;;;;0.73;0.70;;;24.10;52.60;;;;;;5031877;28;20401;-67
2022/09/12 05:18:27;;;;;;;0.60;0.60;;;24.10;52.50;;;;;;5031795;28;20538;-67
2022/09/12 05:20:53;;;;;;;0.55;0.55;;;24.00;52.50;;;;;;5031817;28;20036;-68
2022/09/12 05:23:20;;;;;;;0.60;0.60;;;24.10;52.50;;;;;;5031666;28;20051;-67
2022/09/12 05:25:52;;;;;;;0.63;0.50;;;24.10;52.50;;;;;;5030483;28;20068;-68
2022/09/12 05:28:18;;;;;;;0.73;0.70;;;24.10;52.50;;;;;;5031586;28;20109;-68
2022/09/12 05:30:44;;;;;;;0.60;0.60;;;24.00;52.50;;;;;;5005316;28;20030;-68
2022/09/12 05:33:11;;;;;;;0.52;0.52;;;24.00;52.50;;;;;;5005523;28;20075;-68
2022/09/12 05:35:37;;;;;;;0.82;0.60;;;24.10;52.50;;;;;;5030970;28;20418;-68
2022/09/12 05:38:05;;;;;;;0.77;0.70;;;24.10;52.50;;;;;;5010921;28;20397;-67
2022/09/12 05:40:30;;;;;;;0.60;0.60;;;24.00;52.50;;;;;;5030569;28;20108;-68
2022/09/12 05:42:56;;;;;;;0.63;0.60;;;24.00;52.60;;;;;;5031332;28;20121;-68
2022/09/12 05:45:22;;;;;;;1.50;0.60;;;24.10;52.80;;;;;;5031109;28;20040;-67
2022/09/12 05:47:47;;;;;;;1.00;0.60;;;24.00;52.70;;;;;;5030860;28;20118;-67
2022/09/12 05:50:13;;;;;;;0.60;0.60;;;24.00;52.70;;;;;;5031155;28;20099;-67
2022/09/12 05:52:39;;;;;;;0.60;0.60;;;24.00;52.60;;;;;;5030922;28;20355;-67
2022/09/12 05:55:05;;;;;;;1.35;0.70;;;24.00;52.60;;;;;;5031104;28;20032;-67
2022/09/12 05:57:31;;;;;;;0.90;0.80;;;24.00;52.60;;;;;;5031034;28;20040;-67
2022/09/12 05:59:57;;;;;;;0.80;0.65;;;24.00;52.60;;;;;;5031089;28;20033;-67
2022/09/12 06:02:22;;;;;;;0.70;0.60;;;24.00;52.60;;;;;;5004641;28;20041;-67
2022/09/12 06:04:48;;;;;;;0.65;0.50;;;24.00;52.60;;;;;;5030927;28;20099;-67
2022/09/12 06:07:13;;;;;;;0.88;0.50;;;24.00;52.60;;;;;;5030822;28;20386;-67
2022/09/12 06:09:39;;;;;;;0.60;0.60;;;24.00;52.60;;;;;;5030900;28;20018;-67
2022/09/12 06:12:06;;;;;;;0.98;0.65;;;23.90;52.60;;;;;;5030875;28;20029;-67
2022/09/12 06:14:32;;;;;;;0.75;0.57;;;24.00;52.60;;;;;;5030716;28;20505;-67
2022/09/12 06:16:58;;;;;;;0.50;0.50;;;23.90;52.60;;;;;;5030831;28;20060;-67
2022/09/12 06:19:26;;;;;;;0.52;0.50;;;23.90;52.50;;;;;;5030755;28;20021;-67
2022/09/12 06:21:52;;;;;;;0.50;0.50;;;23.90;52.50;;;;;;5030827;28;20393;-67
2022/09/12 06:24:18;;;;;;;0.75;0.52;;;23.90;52.50;;;;;;5030726;28;20033;-67
2022/09/12 06:26:44;;;;;;;1.27;0.60;;;23.90;52.50;;;;;;5030696;28;20095;-67
2022/09/12 06:29:10;;;;;;;0.65;0.52;;;23.90;52.50;;;;;;5030797;28;20096;-67
2022/09/12 06:31:37;;;;;;;0.55;0.50;;;23.90;52.60;;;;;;5012464;28;20041;-67
2022/09/12 06:34:05;;;;;;;0.60;0.60;;;23.90;52.50;;;;;;5030677;28;20026;-67
2022/09/12 06:36:37;;;;;;;0.77;0.50;;;23.90;52.60;;;;;;5030750;28;20029;-67
2022/09/12 06:39:18;;;;;;;0.93;0.60;;;23.90;52.50;;;;;;5030234;28;20029;-67
2022/09/12 06:41:44;;;;;;;0.50;0.50;;;23.90;52.60;;;;;;5029943;28;20481;-67
2022/09/12 06:44:15;;;;;;;0.60;0.50;;;23.90;52.50;;;;;;5030730;28;20116;-67
2022/09/12 06:46:41;;;;;;;0.50;0.50;;;23.90;52.50;;;;;;5030413;28;20026;-67
2022/09/12 06:49:07;;;;;;;0.50;0.50;;;23.90;53.00;;;;;;5030563;28;20087;-67
2022/09/12 06:51:35;;;;;;;0.45;0.45;;;23.90;52.60;;;;;;5030569;28;20030;-67
2022/09/12 06:54:01;;;;;;;1.08;0.50;;;23.90;52.60;;;;;;5029751;28;20028;-67
2022/09/12 06:56:27;;;;;;;0.57;0.57;;;23.90;52.60;;;;;;5030464;28;20057;-67
2022/09/12 06:58:55;;;;;;;0.65;0.60;;;23.90;52.60;;;;;;5030499;28;20483;-67
2022/09/12 07:01:26;;;;;;;0.75;0.50;;;23.80;52.50;;;;;;5033546;28;20030;-67
2022/09/12 07:03:55;;;;;;;0.82;0.80;;;23.80;52.50;;;;;;5033626;28;20083;-67
2022/09/12 07:06:28;;;;;;;0.88;0.60;;;23.90;52.50;;;;;;5034078;28;20405;-67
2022/09/12 07:08:54;;;;;;;0.65;0.60;;;23.90;52.50;;;;;;5034080;28;20022;-67
2022/09/12 07:11:25;;;;;;;0.60;0.60;;;23.90;52.50;;;;;;5034169;28;20032;-67
2022/09/12 07:13:52;;;;;;;0.68;0.55;;;23.90;52.50;;;;;;5033711;28;20052;-67
2022/09/12 07:16:18;;;;;;;0.65;0.52;;;23.90;52.50;;;;;;5032993;28;20033;-67
2022/09/12 07:18:48;;;;;;;0.60;0.60;;;23.90;52.50;;;;;;5033931;28;20392;-67
2022/09/12 07:21:14;;;;;;;0.80;0.60;;;23.90;52.50;;;;;;5033220;28;20108;-67
2022/09/12 07:23:40;;;;;;;0.60;0.60;;;23.80;52.50;;;;;;5033910;28;20136;-67
2022/09/12 07:26:08;;;;;;;1.42;0.60;;;23.80;52.50;;;;;;5033868;28;20442;-68
2022/09/12 07:28:35;;;;;;;0.55;0.50;;;23.80;52.50;;;;;;5033698;28;20578;-67
2022/09/12 07:31:09;;;;;;;0.40;0.40;;;23.80;52.50;;;;;;5033343;28;20032;-67
2022/09/12 07:33:35;;;;;;;0.50;0.50;;;23.80;53.00;;;;;;5032921;28;20025;-67
2022/09/12 07:36:07;;;;;;;0.70;0.50;;;23.80;52.50;;;;;;5033669;28;20045;-67
2022/09/12 07:38:33;;;;;;;0.85;0.70;;;23.80;52.50;;;;;;5033506;28;20396;-67
2022/09/12 07:41:00;;;;;;;0.60;0.60;;;23.80;52.50;;;;;;5030819;28;20461;-67
2022/09/12 07:43:25;;;;;;;0.77;0.57;;;23.80;52.50;;;;;;5033452;28;20094;-67
2022/09/12 07:45:55;;;;;;;1.40;0.68;;;23.80;52.50;;;;;;5033473;28;20108;-67
2022/09/12 07:48:21;;;;;;;0.50;0.50;;;23.80;52.50;;;;;;5033435;28;20049;-67
2022/09/12 07:50:46;;;;;;;0.60;0.60;;;23.80;52.50;;;;;;5033406;28;20022;-67
2022/09/12 07:53:12;;;;;;;0.40;0.40;;;23.80;52.50;;;;;;5033393;28;20167;-67
2022/09/12 07:55:38;;;;;;;0.50;0.50;;;23.80;52.50;;;;;;5033297;28;20025;-67
2022/09/12 07:58:03;;;;;;;1.60;0.50;;;23.80;52.50;;;;;;5033324;28;20097;-67
2022/09/12 08:00:34;;;;;;;0.50;0.50;;;23.80;52.50;;;;;;5031042;28;20029;-67
2022/09/12 08:03:01;;;;;;;0.50;0.50;;;23.70;52.40;;;;;;5033154;28;20025;-67
2022/09/12 08:05:28;;;;;;;0.50;0.50;;;23.70;52.40;;;;;;5032692;28;20022;-67
2022/09/12 08:07:54;;;;;;;0.73;0.50;;;23.80;52.50;;;;;;5033017;28;20105;-67
2022/09/12 08:10:20;;;;;;;0.43;0.43;;;23.70;52.40;;;;;;5032631;28;20108;-67
2022/09/12 08:12:45;;;;;;;0.70;0.60;;;23.70;52.40;;;;;;5023303;28;20029;-67
2022/09/12 08:15:11;;;;;;;0.40;0.40;;;23.70;52.40;;;;;;5032833;28;20055;-67
2022/09/12 08:17:36;;;;;;;0.63;0.50;;;23.70;52.40;;;;;;5032809;28;20083;-67
2022/09/12 08:20:03;;;;;;;0.50;0.50;;;23.70;52.40;;;;;;5007370;28;20481;-67
2022/09/12 08:22:30;;;;;;;0.57;0.57;;;23.70;52.40;;;;;;5032795;28;20037;-67
2022/09/12 08:24:55;;;;;;;0.50;0.50;;;23.70;52.40;;;;;;5032682;28;20040;-67
2022/09/12 08:27:21;;;;;;;0.60;0.60;;;23.70;52.40;;;;;;5032794;28;20034;-68
2022/09/12 08:29:47;;;;;;;0.57;0.57;;;23.70;52.40;;;;;;5032134;28;20022;-67
2022/09/12 08:32:12;;;;;;;0.60;0.50;;;23.70;52.90;;;;;;5032034;28;20026;-67
2022/09/12 08:34:38;;;;;;;0.55;0.50;;;23.70;52.40;;;;;;5032538;28;20029;-67
2022/09/12 08:37:04;;;;;;;0.50;0.50;;;23.70;52.50;;;;;;5032510;28;20018;-67
2022/09/12 08:39:31;;;;;;;0.50;0.50;;;23.70;52.40;;;;;;5032525;28;20074;-67
2022/09/12 08:42:04;;;;;;;0.50;0.50;;;23.70;52.40;;;;;;5032297;28;20033;-67
2022/09/12 08:45:07;;;;;;;0.50;0.50;;;23.70;52.50;;;;;;5031519;28;20377;-67
2022/09/12 08:47:43;;;;;;;0.50;0.50;;;23.70;52.50;;;;;;5032275;28;20112;-67
2022/09/12 08:50:08;;;;;;;0.30;0.30;;;23.70;52.50;;;;;;5030866;28;20033;-67
2022/09/12 08:52:55;;;;;;;0.50;0.50;;;23.70;52.50;;;;;;5032243;28;20098;-67
2022/09/12 08:55:50;;;;;;;0.82;0.50;;;23.70;52.60;;;;;;5031172;28;20485;-67
2022/09/12 08:58:21;;;;;;;0.50;0.50;;;23.70;52.50;;;;;;5031961;28;20052;-68
2022/09/12 09:01:07;;;;;;;0.80;0.50;;;23.70;52.50;;;;;;5031712;28;20026;-67
2022/09/12 09:03:55;;;;;;;0.52;0.50;;;23.70;53.00;;;;;;5004366;28;20030;-67
2022/09/12 09:07:05;;;;;;;0.47;0.40;;;23.70;52.50;;;;;;5031699;28;20064;-67
2022/09/12 09:09:37;;;;;;;0.50;0.50;;;23.70;52.50;;;;;;5013311;28;20063;-67
2022/09/12 09:12:32;;;;;;;0.70;0.50;;;23.70;52.50;;;;;;5013869;28;20030;-67
2022/09/12 09:15:10;;;;;;;0.43;0.43;;;23.60;52.50;;;;;;5030811;28;20045;-67
2022/09/12 09:17:45;;;;;;;0.50;0.50;;;23.60;52.50;;;;;;5031324;28;20021;-67
2022/09/12 09:20:33;;;;;;;0.50;0.50;;;23.60;52.50;;;;;;5031484;28;20109;-67
2022/09/12 09:23:14;;;;;;;0.65;0.50;;;23.60;52.50;;;;;;5030743;28;20083;-67
2022/09/12 09:26:01;;;;;;;0.60;0.50;;;23.60;52.50;;;;;;5031536;28;20430;-67
2022/09/12 09:28:42;;;;;;;0.85;0.75;;;23.60;52.60;;;;;;5030394;28;20033;-67
2022/09/12 09:31:22;;;;;;;0.60;0.60;;;23.60;52.60;;;;;;5029863;28;20082;-67
2022/09/12 09:33:55;;;;;;;0.52;0.52;;;23.60;52.60;;;;;;5031504;28;20564;-67
2022/09/12 09:36:34;;;;;;;0.60;0.60;;;23.60;52.60;;;;;;5031483;28;20044;-67
2022/09/12 09:39:20;;;;;;;0.50;0.50;;;23.60;53.10;;;;;;5030871;28;20038;-67
2022/09/12 09:42:08;;;;;;;0.77;0.70;;;23.60;52.60;;;;;;5005291;28;20043;-67
2022/09/12 09:44:33;;;;;;;0.43;0.43;;;23.60;52.50;;;;;;5031290;28;20477;-67
2022/09/12 09:46:59;;;;;;;0.50;0.50;;;23.60;52.50;;;;;;5031122;28;20112;-67
2022/09/12 09:49:30;;;;;;;0.50;0.50;;;23.60;52.50;;;;;;5031157;28;20477;-67
2022/09/12 09:51:59;;;;;;;0.47;0.47;;;23.60;52.50;;;;;;5030675;28;20018;-67
2022/09/12 09:54:30;;;;;;;0.60;0.60;;;23.60;52.50;;;;;;5029815;28;20432;-67
2022/09/12 09:56:56;;;;;;;0.50;0.50;;;23.60;52.50;;;;;;5031080;28;20037;-67
2022/09/12 09:59:32;;;;;;;0.47;0.47;;;23.60;52.50;;;;;;5030983;28;20504;-67
2022/09/12 10:02:13;;;;;;;0.60;0.60;;;23.60;52.50;;;;;;5029258;28;20052;-67
2022/09/12 10:04:51;;;;;;;0.50;0.50;;;23.60;52.50;;;;;;5031044;28;20107;-67
2022/09/12 10:07:19;;;;;;;0.52;0.52;;;23.70;52.60;;;;;;5030768;28;20026;-67
2022/09/12 10:10:06;;;;;;;0.60;0.60;;;23.60;52.50;;;;;;5030915;28;20057;-67
2022/09/12 10:12:32;;;;;;;0.57;0.50;;;23.60;52.50;;;;;;5030899;28;20029;-67
2022/09/12 10:15:00;;;;;;;0.50;0.50;;;23.60;52.50;;;;;;5030838;28;20457;-67
2022/09/12 10:17:30;;;;;;;0.50;0.50;;;23.60;52.50;;;;;;5030895;28;20033;-67
2022/09/12 10:19:56;;;;;;;0.93;0.50;;;23.60;52.50;;;;;;5028437;28;20026;-67
2022/09/12 10:22:26;;;;;;;0.50;0.50;;;23.60;52.50;;;;;;5030801;28;20107;-67
2022/09/12 10:24:57;;;;;;;0.75;0.50;;;23.60;52.60;;;;;;5029530;28;20047;-67
2022/09/12 10:27:27;;;;;;;0.50;0.50;;;23.60;52.60;;;;;;5030794;28;20033;-67
2022/09/12 10:29:54;;;;;;;;;;;23.60;52.60;;;;;;5030188;28;20034;-67
2022/09/12 10:32:39;;;;;;;0.50;0.50;;;23.60;52.60;;;;;;5030373;28;19917;-67
2022/09/12 10:35:20;;;;;;;0.50;0.50;;;23.60;52.60;;;;;;5034046;28;20096;-67
2022/09/12 10:38:04;;;;;;;0.55;0.52;;;23.60;52.60;;;;;;5034573;28;20040;-68
2022/09/12 10:40:39;;;;;;;0.50;0.50;;;23.60;52.60;;;;;;5033862;28;20042;-67
2022/09/12 10:43:29;;;;;;;0.47;0.43;;;23.60;52.60;;;;;;5033932;28;20511;-67
2022/09/12 10:46:18;;;;;;;0.63;0.57;;;23.60;52.60;;;;;;5034027;28;20030;-67
2022/09/12 10:49:05;;;;;;;0.45;0.45;;;23.60;52.60;;;;;;5025248;28;20069;-67
2022/09/12 10:51:31;;;;;;;0.63;0.50;;;23.60;53.10;;;;;;5015042;28;20041;-67
2022/09/12 10:54:06;;;;;;;0.50;0.50;;;23.60;52.60;;;;;;5034515;28;20021;-67
2022/09/12 10:56:41;;;;;;;0.50;0.50;;;23.60;52.60;;;;;;5033380;28;20424;-68
2022/09/12 10:59:22;;;;;;;0.68;0.50;;;23.60;52.60;;;;;;5034523;28;20030;-68
2022/09/12 11:01:52;;;;;;;1.00;0.50;;;23.60;52.60;;;;;;5033803;28;20363;-68
2022/09/12 11:04:17;;;;;;;0.43;0.43;;;23.60;52.60;;;;;;5025414;28;20435;-68
2022/09/12 11:07:21;;;;;;;1.02;0.82;;;23.60;52.60;;;;;;5034259;28;20029;-67
2022/09/12 11:09:57;;;;;;;1.10;0.60;;;23.60;52.70;;;;;;5034235;28;20431;-68
2022/09/12 11:12:46;;;;;;;0.52;0.50;;;23.60;52.60;;;;;;5008169;28;20029;-68
2022/09/12 11:15:27;;;;;;;0.50;0.50;;;23.60;53.10;;;;;;5033949;28;20092;-68
2022/09/12 11:18:01;;;;;;;0.40;0.40;;;23.60;52.60;;;;;;5034066;28;20389;-68
2022/09/12 11:20:50;;;;;;;0.50;0.50;;;23.60;52.60;;;;;;5033664;28;20501;-68
2022/09/12 11:23:16;;;;;;;0.50;0.50;;;23.60;52.60;;;;;;5033755;28;20091;-68
2022/09/12 11:26:02;;;;;;;0.50;0.50;;;23.60;52.60;;;;;;5033944;28;20283;-68
2022/09/12 11:28:51;;;;;;;0.43;0.43;;;23.60;52.60;;;;;;5032677;28;20469;-68
2022/09/12 11:31:37;;;;;;;0.40;0.40;;;23.60;52.60;;;;;;5033285;28;20026;-68
2022/09/12 11:34:08;;;;;;;0.70;0.50;;;23.60;52.60;;;;;;5032484;28;20421;-68
2022/09/12 11:36:55;;;;;;;0.80;0.55;;;23.60;52.60;;;;;;5033710;28;20017;-68
2022/09/12 11:39:32;;;;;;;0.40;0.40;;;23.60;52.60;;;;;;5032809;28;20068;-68
2022/09/12 11:42:01;;;;;;;0.50;0.40;;;23.60;52.60;;;;;;5033548;28;20513;-68
2022/09/12 11:44:35;;;;;;;0.40;0.40;;;23.60;52.60;;;;;;5032137;28;20393;-68
2022/09/12 11:47:05;;;;;;;2.30;0.60;;;23.70;52.60;;;;;;5032573;28;20782;-68
2022/09/12 11:49:36;;;;;;;0.50;0.50;;;23.70;52.60;;;;;;5033443;28;20025;-68
2022/09/12 11:52:09;;;;;;;0.45;0.45;;;23.70;52.60;;;;;;5033437;28;20049;-68
2022/09/12 11:55:02;;;;;;;0.50;0.50;;;23.70;52.60;;;;;;5033290;28;20089;-68
2022/09/12 11:57:49;;;;;;;0.50;0.50;;;23.70;52.60;;;;;;5032632;28;20022;-68
2022/09/12 12:00:23;;;;;;;0.40;0.40;;;23.70;52.60;;;;;;5032766;28;20037;-68
2022/09/12 12:02:51;;;;;;;0.60;0.60;;;23.70;52.60;;;;;;5032714;28;20422;-68
2022/09/12 12:05:39;;;;;;;0.50;0.50;;;23.70;52.60;;;;;;5032798;28;20025;-68
2022/09/12 12:08:06;;;;;;;0.60;0.50;;;23.70;52.60;;;;;;5031912;28;20389;-68
2022/09/12 12:10:36;;;;;;;0.65;0.65;;;23.70;52.60;;;;;;5033055;28;20101;-69
2022/09/12 12:13:09;;;;;;;0.77;0.50;;;23.70;52.60;;;;;;5033206;28;20481;-68
2022/09/12 12:15:36;;;;;;;0.60;0.60;;;23.70;52.50;;;;;;5030488;28;20496;-68
2022/09/12 12:18:02;;;;;;;0.50;0.50;;;23.70;52.50;;;;;;5033064;28;20459;-68
2022/09/12 12:20:28;;;;;;;0.55;0.55;;;23.70;52.50;;;;;;5033030;28;20056;-69
2022/09/12 12:22:54;;;;;;;0.50;0.50;;;23.70;52.50;;;;;;5032818;28;20029;-69
2022/09/12 12:25:43;;;;;;;0.50;0.50;;;23.70;52.50;;;;;;5032764;28;20033;-68
2022/09/12 12:28:09;;;;;;;0.50;0.50;;;23.70;52.50;;;;;;5022788;28;20046;-67
2022/09/12 12:30:54;;;;;;;0.60;0.60;;;23.70;52.50;;;;;;5032255;28;20391;-68
2022/09/12 12:33:20;;;;;;;0.60;0.60;;;23.70;52.50;;;;;;5031193;28;20461;-69
2022/09/12 12:35:58;;;;;;;0.93;0.65;;;23.70;52.50;;;;;;5032712;28;20060;-69
2022/09/12 12:38:31;;;;;;;0.60;0.60;;;23.70;52.50;;;;;;5031536;28;20033;-69
2022/09/12 12:41:15;;;;;;;0.60;0.60;;;23.70;52.50;;;;;;5030789;28;20543;-69
2022/09/12 12:43:42;;;;;;;0.60;0.60;;;23.80;52.50;;;;;;5032338;28;20033;-69
2022/09/12 12:46:13;;;;;;;0.70;0.70;;;23.80;52.50;;;;;;5005938;28;20029;-69
2022/09/12 12:49:05;;;;;;;0.60;0.60;;;23.80;52.50;;;;;;5029287;28;20800;-69
2022/09/12 12:51:54;;;;;;;0.50;0.50;;;23.80;52.50;;;;;;5023848;28;20037;-69
2022/09/12 12:54:30;;;;;;;0.60;0.60;;;23.80;52.50;;;;;;5031737;28;20021;-70
2022/09/12 12:57:21;;;;;;;0.93;0.60;;;23.80;52.50;;;;;;5031354;28;20366;-69
2022/09/12 13:00:02;;;;;;;0.73;0.60;;;23.70;52.50;;;;;;5031352;28;20026;-69
2022/09/12 13:02:48;;;;;;;0.73;0.70;;;23.80;52.50;;;;;;5011957;28;20396;-69
2022/09/12 13:05:20;;;;;;;0.60;0.60;;;23.80;52.50;;;;;;5029974;28;20091;-69
2022/09/12 13:07:52;;;;;;;0.75;0.70;;;23.80;52.40;;;;;;5029192;28;20422;-69
2022/09/12 13:10:28;;;;;;;0.70;0.70;;;23.80;52.40;;;;;;5029582;28;20026;-69
2022/09/12 13:12:57;;;;;;;0.80;0.70;;;23.80;52.40;;;;;;5029096;28;20535;-68
2022/09/12 13:15:35;;;;;;;0.70;0.60;;;23.80;52.40;;;;;;5030778;28;20136;-69